Time;durP1;ratioP1;P1;durP2;ratioP2;P2;SDS_P1;SDS_P2;PMS_P1;PMS_P2;Temp;Humidity;BMP_temperature;BMP_pressure;BME280_temperature;BME280_humidity;BME280_pressure;Samples;Min_cycle;Max_cycle;Signal;HPM_P1;HPM_P2
2022/10/05 00:01:45;;;;;;;2.10;1.00;;;17.50;72.10;;;;;;4999926;28;20053;-77
2022/10/05 00:04:18;;;;;;;1.98;0.80;;;17.60;72.00;;;;;;5017199;28;20046;-77
2022/10/05 00:06:54;;;;;;;1.98;0.70;;;17.60;72.20;;;;;;5017397;28;20054;-78
2022/10/05 00:09:20;;;;;;;2.22;0.88;;;17.50;72.10;;;;;;5017606;28;20396;-78
2022/10/05 00:11:50;;;;;;;2.08;0.63;;;17.50;72.10;;;;;;4999587;28;20479;-77
2022/10/05 00:14:20;;;;;;;2.35;0.90;;;17.50;72.20;;;;;;5017725;28;20034;-78
2022/10/05 00:16:46;;;;;;;;;;;17.60;72.30;;;;;;5017607;28;20069;-77
2022/10/05 00:19:24;;;;;;;5.30;0.90;;;17.50;72.20;;;;;;5017636;28;19906;-77
2022/10/05 00:21:49;;;;;;;1.35;0.77;;;17.60;72.00;;;;;;5016230;28;20034;-77
2022/10/05 00:24:18;;;;;;;1.35;0.80;;;17.60;71.70;;;;;;5016902;28;20053;-77
2022/10/05 00:26:43;;;;;;;1.35;0.70;;;17.50;72.00;;;;;;5016850;28;20033;-77
2022/10/05 00:29:21;;;;;;;1.83;0.80;;;17.60;71.90;;;;;;5017502;28;20105;-77
2022/10/05 00:31:48;;;;;;;1.30;0.80;;;17.50;72.00;;;;;;5016804;28;20373;-77
2022/10/05 00:34:14;;;;;;;2.15;0.73;;;17.50;71.80;;;;;;5017397;28;20082;-77
2022/10/05 00:36:40;;;;;;;1.15;0.50;;;17.50;71.70;;;;;;5017431;28;20494;-77
2022/10/05 00:39:05;;;;;;;2.28;0.70;;;17.60;71.80;;;;;;5017003;28;20112;-77
2022/10/05 00:41:49;;;;;;;1.10;0.55;;;17.50;71.90;;;;;;5017262;28;20477;-76
2022/10/05 00:44:27;;;;;;;2.53;0.80;;;17.60;71.80;;;;;;5016754;28;20392;-78
2022/10/05 00:46:55;;;;;;;2.40;0.60;;;17.60;71.80;;;;;;5015467;28;20061;-77
2022/10/05 00:49:39;;;;;;;1.98;0.88;;;17.60;71.70;;;;;;5016560;28;20081;-77
2022/10/05 00:52:31;;;;;;;1.33;0.65;;;17.60;71.70;;;;;;5015694;28;20088;-77
2022/10/05 00:55:16;;;;;;;1.00;0.70;;;17.60;71.50;;;;;;4992865;28;20061;-78
2022/10/05 00:58:26;;;;;;;2.88;0.85;;;17.50;71.50;;;;;;4996222;28;20401;-77
2022/10/05 01:00:55;;;;;;;1.35;0.60;;;17.60;71.70;;;;;;4969144;28;20056;-77
2022/10/05 01:03:47;;;;;;;1.02;0.60;;;17.60;71.70;;;;;;4979184;28;20030;-77
2022/10/05 01:06:34;;;;;;;0.80;0.50;;;17.60;71.80;;;;;;4990253;28;20414;-78
2022/10/05 01:09:18;;;;;;;1.10;0.73;;;17.60;71.70;;;;;;4995613;28;20054;-78
2022/10/05 01:11:55;;;;;;;1.20;0.60;;;17.60;71.60;;;;;;4997519;28;20029;-77
2022/10/05 01:14:48;;;;;;;2.17;0.63;;;17.60;71.70;;;;;;4997058;28;20037;-77
2022/10/05 01:17:38;;;;;;;0.90;0.60;;;17.60;71.60;;;;;;4996766;28;20497;-77
2022/10/05 01:20:17;;;;;;;;;;;17.60;71.60;;;;;;4995715;28;20037;-77
2022/10/05 01:23:25;;;;;;;1.27;0.70;;;17.70;71.60;;;;;;5000219;28;19913;-77
2022/10/05 01:26:06;;;;;;;1.73;0.77;;;17.70;71.70;;;;;;4972492;28;20101;-77
2022/10/05 01:28:36;;;;;;;1.15;0.70;;;17.70;71.80;;;;;;4958024;29;20034;-77
2022/10/05 01:31:02;;;;;;;1.58;0.80;;;17.70;72.20;;;;;;4959574;28;20042;-77
2022/10/05 01:33:39;;;;;;;4.38;0.70;;;17.60;72.30;;;;;;4992185;28;20027;-77
2022/10/05 01:36:18;;;;;;;2.08;0.73;;;17.60;72.60;;;;;;4963275;28;20110;-77
2022/10/05 01:38:53;;;;;;;1.73;0.80;;;17.60;72.80;;;;;;4957837;29;20023;-78
2022/10/05 01:41:36;;;;;;;1.73;1.08;;;17.50;73.20;;;;;;4976611;28;20064;-77
2022/10/05 01:44:11;;;;;;;1.50;0.90;;;17.50;73.20;;;;;;4977112;28;20106;-77
2022/10/05 01:46:51;;;;;;;3.00;0.93;;;17.50;73.40;;;;;;4976402;28;20030;-77
2022/10/05 01:49:32;;;;;;;1.60;0.73;;;17.50;73.60;;;;;;4976954;28;20027;-77
2022/10/05 01:52:22;;;;;;;2.47;0.80;;;17.50;73.90;;;;;;4976954;28;20517;-77
2022/10/05 01:55:09;;;;;;;1.40;0.90;;;17.50;74.00;;;;;;4965570;28;20038;-77
2022/10/05 01:57:51;;;;;;;1.60;1.00;;;17.50;74.10;;;;;;4957245;28;20034;-77
2022/10/05 02:00:19;;;;;;;4.93;1.25;;;17.50;74.20;;;;;;4957671;28;20059;-77
2022/10/05 02:02:56;;;;;;;2.10;1.20;;;17.50;74.40;;;;;;4957569;29;20165;-77
2022/10/05 02:05:32;;;;;;;2.13;1.10;;;17.50;74.60;;;;;;4957436;29;20573;-77
2022/10/05 02:08:07;;;;;;;2.25;1.30;;;17.50;75.00;;;;;;4975415;28;20066;-77
2022/10/05 02:10:40;;;;;;;1.45;0.93;;;17.40;75.00;;;;;;4976697;28;20046;-77
2022/10/05 02:13:12;;;;;;;1.77;1.10;;;17.40;75.10;;;;;;4960891;28;20111;-77
2022/10/05 02:15:44;;;;;;;2.25;0.90;;;17.40;75.20;;;;;;4971978;28;20105;-77
2022/10/05 02:18:16;;;;;;;2.03;1.20;;;17.30;75.90;;;;;;4967975;28;20038;-77
2022/10/05 02:20:43;;;;;;;2.28;1.23;;;17.30;75.90;;;;;;4976536;28;20018;-77
2022/10/05 02:23:19;;;;;;;1.73;1.20;;;17.30;75.80;;;;;;4980174;28;20394;-77
2022/10/05 02:25:48;;;;;;;1.80;1.00;;;17.40;75.90;;;;;;5015530;28;20038;-77
2022/10/05 02:28:42;;;;;;;5.00;1.58;;;17.40;75.90;;;;;;5014898;28;20036;-77
2022/10/05 02:31:15;;;;;;;3.17;1.13;;;17.40;75.80;;;;;;4997286;28;20025;-77
2022/10/05 02:33:41;;;;;;;2.30;1.00;;;17.40;75.80;;;;;;5015019;28;20025;-77
2022/10/05 02:36:15;;;;;;;1.85;0.90;;;17.40;75.70;;;;;;5014870;28;20064;-77
2022/10/05 02:38:50;;;;;;;3.00;1.10;;;17.40;75.80;;;;;;5015416;28;20061;-77
2022/10/05 02:41:40;;;;;;;4.22;1.00;;;17.40;75.90;;;;;;5013961;28;20030;-77
2022/10/05 02:44:24;;;;;;;;;;;17.30;76.00;;;;;;4987059;28;20069;-77
2022/10/05 02:46:59;;;;;;;1.33;0.80;;;17.40;76.00;;;;;;4995610;28;19916;-76
2022/10/05 02:49:34;;;;;;;2.78;1.15;;;17.40;75.90;;;;;;4995606;28;20040;-77
2022/10/05 02:52:31;;;;;;;2.22;1.00;;;17.30;76.00;;;;;;4977836;28;20027;-77
2022/10/05 02:55:12;;;;;;;1.40;1.00;;;17.40;76.00;;;;;;4977955;28;20026;-78
2022/10/05 02:58:01;;;;;;;1.73;0.90;;;17.40;76.10;;;;;;4996042;28;20362;-77
2022/10/05 03:00:33;;;;;;;2.15;1.10;;;17.40;76.10;;;;;;4995639;28;20037;-77
2022/10/05 03:03:30;;;;;;;3.35;1.38;;;17.30;75.90;;;;;;4995383;28;20102;-76
2022/10/05 03:06:14;;;;;;;2.30;1.30;;;17.40;76.00;;;;;;5014220;28;20420;-77
2022/10/05 03:09:00;;;;;;;1.83;1.02;;;17.30;76.10;;;;;;5015094;28;20038;-78
2022/10/05 03:12:01;;;;;;;1.55;0.98;;;17.30;76.10;;;;;;5017301;28;20029;-77
2022/10/05 03:14:46;;;;;;;1.98;1.02;;;17.30;76.10;;;;;;4919865;28;20049;-77
2022/10/05 03:17:19;;;;;;;2.15;1.00;;;17.30;76.10;;;;;;4981094;28;20031;-77
2022/10/05 03:20:11;;;;;;;1.80;1.02;;;17.30;76.30;;;;;;4981704;28;20026;-77
2022/10/05 03:23:00;;;;;;;3.70;0.90;;;17.30;76.40;;;;;;5004549;28;20473;-78
2022/10/05 03:25:50;;;;;;;2.05;1.00;;;17.30;76.30;;;;;;4998896;28;20078;-77
2022/10/05 03:28:21;;;;;;;1.95;1.20;;;17.30;76.20;;;;;;5007588;28;20515;-77
2022/10/05 03:30:58;;;;;;;;;;;17.30;76.20;;;;;;5018453;28;20566;-77
2022/10/05 03:33:27;;;;;;;2.47;1.38;;;17.30;76.20;;;;;;5017923;28;20403;-78
2022/10/05 03:35:56;;;;;;;1.95;1.20;;;17.30;76.30;;;;;;5018506;28;20018;-77
2022/10/05 03:38:39;;;;;;;3.45;1.10;;;17.30;76.50;;;;;;5018504;28;20037;-76
2022/10/05 03:41:38;;;;;;;2.95;1.30;;;17.30;76.30;;;;;;5003305;28;20022;-77
2022/10/05 03:44:23;;;;;;;9.63;1.27;;;17.30;76.50;;;;;;5009703;28;20032;-77
2022/10/05 03:46:55;;;;;;;1.40;1.00;;;17.30;76.40;;;;;;5000645;28;20038;-77
2022/10/05 03:49:54;;;;;;;2.90;1.10;;;17.30;76.40;;;;;;5017469;28;20033;-77
2022/10/05 03:52:28;;;;;;;1.55;0.93;;;17.30;76.40;;;;;;5013543;28;20105;-77
2022/10/05 03:55:04;;;;;;;2.70;1.30;;;17.30;76.40;;;;;;4998928;28;20053;-77
2022/10/05 03:57:35;;;;;;;4.85;1.17;;;17.30;76.40;;;;;;4998602;28;20030;-77
2022/10/05 04:00:14;;;;;;;3.60;1.50;;;17.30;76.50;;;;;;4998542;28;20027;-77
2022/10/05 04:03:01;;;;;;;2.40;1.15;;;17.30;76.60;;;;;;4998493;28;20034;-77
2022/10/05 04:05:40;;;;;;;1.60;1.08;;;17.30;76.60;;;;;;4998486;28;20045;-77
2022/10/05 04:08:12;;;;;;;3.45;1.27;;;17.30;76.70;;;;;;4998201;28;20452;-78
2022/10/05 04:10:53;;;;;;;3.30;1.35;;;17.30;76.60;;;;;;5015750;28;20041;-77
2022/10/05 04:13:40;;;;;;;2.28;1.15;;;17.30;76.70;;;;;;5000160;28;20489;-78
2022/10/05 04:16:14;;;;;;;1.90;1.02;;;17.30;76.80;;;;;;5016164;28;20026;-77
2022/10/05 04:18:47;;;;;;;2.22;0.85;;;17.30;76.90;;;;;;5017321;28;20041;-77
2022/10/05 04:21:17;;;;;;;2.53;1.10;;;17.30;76.90;;;;;;5017539;28;20037;-78
2022/10/05 04:24:01;;;;;;;;;;;17.30;76.90;;;;;;5016853;28;20455;-76
2022/10/05 04:26:39;;;;;;;2.17;1.23;;;17.30;76.80;;;;;;5017611;28;19910;-77
2022/10/05 04:29:30;;;;;;;3.60;1.40;;;17.30;76.60;;;;;;5017515;28;20034;-75
2022/10/05 04:32:01;;;;;;;2.22;1.50;;;17.30;76.70;;;;;;5016784;28;20033;-83
2022/10/05 04:34:46;;;;;;;2.25;1.20;;;17.30;76.60;;;;;;5016204;28;20087;-83
2022/10/05 04:37:27;;;;;;;3.13;1.20;;;17.30;76.60;;;;;;5016724;28;20444;-81
2022/10/05 04:40:24;;;;;;;5.03;1.65;;;17.30;76.70;;;;;;5016900;28;20051;-81
2022/10/05 04:42:59;;;;;;;2.28;1.17;;;17.40;76.70;;;;;;5010663;28;20022;-80
2022/10/05 04:45:43;;;;;;;1.88;1.20;;;17.30;76.70;;;;;;4997513;28;20210;-80
2022/10/05 04:48:27;;;;;;;2.65;1.08;;;17.30;76.60;;;;;;5010341;28;20033;-81
2022/10/05 04:50:56;;;;;;;1.83;1.00;;;17.40;76.60;;;;;;5017063;28;20096;-85
2022/10/05 04:53:30;;;;;;;1.98;1.17;;;17.30;76.60;;;;;;5012281;28;20022;-85
2022/10/05 04:56:10;;;;;;;4.07;1.20;;;17.30;76.50;;;;;;5015871;28;20108;-84
2022/10/05 04:58:51;;;;;;;2.30;1.40;;;17.30;76.50;;;;;;4997876;28;20053;-79
2022/10/05 05:01:54;;;;;;;2.75;1.02;;;17.30;76.50;;;;;;5013298;28;20042;-84
2022/10/05 05:04:32;;;;;;;2.22;1.27;;;17.30;76.50;;;;;;5015559;28;20058;-81
2022/10/05 05:07:32;;;;;;;4.57;1.40;;;17.40;76.30;;;;;;5012514;28;20552;-80
2022/10/05 05:10:09;;;;;;;;;;;17.40;76.30;;;;;;5007417;28;20049;-79
2022/10/05 05:12:44;;;;;;;2.33;1.20;;;17.50;76.20;;;;;;5015445;28;19995;-79
2022/10/05 05:15:35;;;;;;;2.17;1.27;;;17.40;76.10;;;;;;5008029;28;20034;-78
2022/10/05 05:18:26;;;;;;;3.67;1.23;;;17.40;76.00;;;;;;5016462;28;20033;-78
2022/10/05 05:21:16;;;;;;;1.48;1.00;;;17.40;76.00;;;;;;5006760;28;20022;-80
2022/10/05 05:23:53;;;;;;;;;;;17.50;75.80;;;;;;4994554;28;20052;-82
2022/10/05 05:26:19;;;;;;;1.70;1.13;;;17.50;75.70;;;;;;5026511;28;19996;-82
2022/10/05 05:29:07;;;;;;;3.10;1.20;;;17.50;75.50;;;;;;4997286;28;20034;-82
2022/10/05 05:32:22;;;;;;;3.65;1.17;;;17.40;75.40;;;;;;4977822;28;20449;-81
2022/10/05 05:35:16;;;;;;;2.47;1.30;;;17.50;75.50;;;;;;4934529;29;20346;-83
2022/10/05 05:37:54;;;;;;;3.10;1.13;;;17.50;75.50;;;;;;5015686;28;20095;-83
2022/10/05 05:40:26;;;;;;;3.58;1.35;;;17.50;75.60;;;;;;5014659;28;20033;-81
2022/10/05 05:43:12;;;;;;;1.48;1.15;;;17.50;75.60;;;;;;5013506;28;20065;-81
2022/10/05 05:46:02;;;;;;;3.80;1.38;;;17.50;75.60;;;;;;5013119;28;20634;-82
2022/10/05 05:51:38;;;;;;;2.25;1.20;;;17.40;75.70;;;;;;5003354;28;20026;-82
2022/10/05 05:54:33;;;;;;;2.85;1.13;;;17.50;75.70;;;;;;4998734;28;20033;-81
2022/10/05 05:57:09;;;;;;;4.32;1.33;;;17.40;75.70;;;;;;4994873;28;20489;-81
2022/10/05 06:00:10;;;;;;;;;;;;;;;;;;;;;
2022/10/05 06:03:11;;;;;;;1.50;1.10;;;17.50;75.80;;;;;;4997143;28;20109;-82
2022/10/05 06:06:13;;;;;;;2.63;1.50;;;17.50;76.00;;;;;;4998707;28;20033;-81
2022/10/05 06:08:44;;;;;;;3.90;1.30;;;17.50;76.20;;;;;;4989063;28;20038;-82
2022/10/05 06:11:38;;;;;;;5.53;1.70;;;17.50;76.10;;;;;;5016092;28;20140;-82
2022/10/05 06:14:12;;;;;;;2.58;1.25;;;17.50;76.20;;;;;;4981681;28;20081;-82
2022/10/05 06:16:48;;;;;;;3.08;1.25;;;17.50;76.30;;;;;;4998561;28;20072;-81
2022/10/05 06:19:17;;;;;;;8.52;1.85;;;17.50;76.40;;;;;;5016732;28;20492;-82
2022/10/05 06:22:08;;;;;;;5.68;2.00;;;17.50;76.30;;;;;;5015335;28;20037;-81
2022/10/05 06:24:43;;;;;;;3.28;1.65;;;17.60;76.30;;;;;;4997403;28;20050;-81
2022/10/05 06:27:24;;;;;;;5.00;1.50;;;17.60;76.30;;;;;;5015892;28;20030;-82
2022/10/05 06:30:02;;;;;;;2.55;1.60;;;17.60;76.40;;;;;;5016625;28;20026;-81
2022/10/05 06:32:33;;;;;;;3.30;1.60;;;17.60;76.30;;;;;;5015590;28;20064;-81
2022/10/05 06:35:25;;;;;;;3.20;1.50;;;17.60;76.20;;;;;;5010225;28;20026;-81
2022/10/05 06:38:21;;;;;;;2.15;1.35;;;17.60;76.10;;;;;;4995085;28;20026;-81
2022/10/05 06:41:17;;;;;;;3.70;1.90;;;17.60;76.10;;;;;;4979469;28;20034;-82
2022/10/05 06:44:21;;;;;;;5.90;1.67;;;17.60;76.10;;;;;;5008418;28;20025;-81
2022/10/05 06:46:50;;;;;;;4.32;1.88;;;17.60;76.10;;;;;;5002211;28;20092;-81
2022/10/05 06:49:22;;;;;;;2.28;1.30;;;17.60;76.20;;;;;;5018175;28;20025;-82
2022/10/05 06:52:01;;;;;;;2.30;1.55;;;17.70;76.20;;;;;;5019038;28;20033;-80
2022/10/05 06:54:58;;;;;;;2.22;1.50;;;17.70;76.20;;;;;;5019371;28;20060;-82
2022/10/05 06:57:35;;;;;;;4.38;1.73;;;17.70;76.20;;;;;;5014905;28;20112;-81
2022/10/05 07:00:15;;;;;;;7.45;1.80;;;17.70;76.30;;;;;;4999706;28;20018;-81
2022/10/05 07:02:50;;;;;;;;;;;17.70;76.20;;;;;;5001928;28;20022;-80
2022/10/05 07:05:34;;;;;;;3.72;1.65;;;17.70;76.20;;;;;;5019418;28;19932;-80
2022/10/05 07:08:07;;;;;;;3.38;1.60;;;17.70;76.20;;;;;;5018793;28;20036;-81
2022/10/05 07:10:51;;;;;;;3.15;1.88;;;17.70;76.30;;;;;;5019136;28;20072;-81
2022/10/05 07:13:35;;;;;;;3.95;2.05;;;17.70;76.30;;;;;;5016707;28;20488;-82
2022/10/05 07:16:18;;;;;;;3.50;1.40;;;17.80;76.30;;;;;;5001152;28;20077;-81
2022/10/05 07:19:14;;;;;;;4.78;1.80;;;17.80;76.20;;;;;;5019067;28;20049;-81
2022/10/05 07:22:05;;;;;;;3.75;2.00;;;17.80;76.30;;;;;;5001241;28;20125;-80
2022/10/05 07:24:39;;;;;;;1.92;1.63;;;17.80;76.30;;;;;;4999571;28;20054;-81
2022/10/05 07:27:27;;;;;;;4.70;2.05;;;17.90;76.30;;;;;;4996525;28;20070;-80
2022/10/05 07:30:08;;;;;;;4.30;2.05;;;17.90;76.30;;;;;;5001520;28;20140;-81
2022/10/05 07:32:44;;;;;;;3.15;1.90;;;18.00;76.30;;;;;;5018295;28;20025;-81
2022/10/05 07:38:37;;;;;;;4.43;2.33;;;18.00;76.30;;;;;;5019035;28;20119;-81
2022/10/05 07:41:28;;;;;;;;;;;18.10;76.30;;;;;;4990887;28;20031;-81
2022/10/05 07:44:04;;;;;;;3.50;1.85;;;18.10;76.30;;;;;;4999136;28;19909;-80
2022/10/05 07:46:45;;;;;;;4.25;1.95;;;18.10;76.30;;;;;;4999780;28;20066;-80
2022/10/05 07:49:31;;;;;;;10.57;2.15;;;18.20;76.40;;;;;;4998901;28;20026;-81
2022/10/05 07:52:02;;;;;;;2.92;1.67;;;18.30;76.20;;;;;;5001614;28;20025;-80
2022/10/05 07:54:50;;;;;;;4.68;2.05;;;18.30;76.20;;;;;;5018780;28;20022;-80
2022/10/05 07:57:39;;;;;;;4.22;2.15;;;18.30;76.10;;;;;;5018006;28;20026;-80
2022/10/05 08:00:13;;;;;;;3.30;1.90;;;18.40;75.80;;;;;;4937891;28;20041;-81
2022/10/05 08:02:58;;;;;;;3.17;1.98;;;18.50;75.70;;;;;;5000840;28;20110;-81
2022/10/05 08:05:39;;;;;;;5.90;1.70;;;18.40;75.70;;;;;;5000869;28;20025;-82
2022/10/05 08:08:30;;;;;;;5.70;2.45;;;18.40;75.60;;;;;;5018226;28;20034;-80
2022/10/05 08:11:10;;;;;;;6.40;2.28;;;18.40;75.50;;;;;;5017543;28;20099;-81
2022/10/05 08:13:44;;;;;;;5.25;2.20;;;18.40;75.70;;;;;;5018352;28;20029;-80
2022/10/05 08:16:11;;;;;;;9.32;2.30;;;18.40;75.80;;;;;;5018038;28;20030;-80
2022/10/05 08:18:55;;;;;;;5.03;2.13;;;18.40;75.90;;;;;;5000857;28;20570;-80
2022/10/05 08:21:34;;;;;;;4.95;2.70;;;18.50;75.80;;;;;;5017524;28;20037;-81
2022/10/05 08:24:33;;;;;;;3.30;2.30;;;18.60;75.80;;;;;;5017833;28;20050;-80
2022/10/05 08:27:05;;;;;;;4.20;2.50;;;18.60;75.50;;;;;;4998462;28;20026;-80
2022/10/05 08:29:54;;;;;;;6.05;2.22;;;18.80;75.30;;;;;;4998191;28;20034;-80
2022/10/05 08:32:20;;;;;;;8.43;2.87;;;18.80;75.10;;;;;;4980988;28;20484;-81
2022/10/05 08:35:06;;;;;;;2.70;2.13;;;18.80;75.10;;;;;;5015289;28;20055;-80
2022/10/05 08:37:38;;;;;;;5.03;2.30;;;18.80;75.10;;;;;;5000333;28;20021;-81
2022/10/05 08:40:09;;;;;;;3.13;2.20;;;18.80;74.10;;;;;;5017084;28;20025;-81
2022/10/05 08:43:08;;;;;;;4.95;2.20;;;18.90;73.60;;;;;;5017672;28;20101;-81
2022/10/05 08:46:01;;;;;;;3.05;2.03;;;19.00;73.90;;;;;;5016318;28;20026;-80
2022/10/05 08:48:55;;;;;;;3.50;2.20;;;19.00;73.40;;;;;;5016918;28;20080;-80
2022/10/05 08:52:11;;;;;;;3.22;1.98;;;18.80;72.60;;;;;;4999978;28;20109;-81
2022/10/05 08:54:53;;;;;;;3.67;1.60;;;18.90;72.10;;;;;;4967180;28;20044;-80
2022/10/05 08:57:33;;;;;;;4.05;1.55;;;19.00;71.30;;;;;;5017298;28;20078;-80
2022/10/05 09:00:17;;;;;;;4.28;1.40;;;19.00;71.00;;;;;;5017199;28;20060;-80
2022/10/05 09:03:10;;;;;;;2.35;1.40;;;19.00;69.90;;;;;;4999574;28;20108;-80
2022/10/05 09:06:17;;;;;;;3.97;2.00;;;18.90;69.00;;;;;;4997617;28;20493;-81
2022/10/05 09:09:05;;;;;;;2.33;1.70;;;19.00;69.20;;;;;;4969743;28;20072;-81
2022/10/05 09:12:08;;;;;;;5.50;1.55;;;19.10;69.20;;;;;;5009072;28;20033;-80
2022/10/05 09:14:51;;;;;;;2.85;1.10;;;19.20;68.40;;;;;;4999684;28;20033;-81
2022/10/05 09:17:41;;;;;;;4.28;1.40;;;19.20;67.90;;;;;;4996228;28;20038;-81
2022/10/05 09:20:09;;;;;;;4.43;1.50;;;19.30;67.80;;;;;;4980148;28;20035;-80
2022/10/05 09:22:58;;;;;;;3.05;1.35;;;19.30;67.50;;;;;;4986738;28;20064;-80
2022/10/05 09:25:42;;;;;;;2.30;1.27;;;19.30;66.70;;;;;;5016377;28;20052;-81
2022/10/05 09:28:23;;;;;;;4.43;1.23;;;19.20;66.80;;;;;;5016797;28;20523;-81
2022/10/05 09:31:13;;;;;;;2.45;1.00;;;19.20;66.40;;;;;;5016766;28;20245;-81
2022/10/05 09:33:57;;;;;;;;;;;19.20;66.90;;;;;;5017429;28;20025;-81
2022/10/05 09:36:48;;;;;;;1.63;1.08;;;19.30;66.90;;;;;;5016083;28;20391;-81
2022/10/05 09:39:32;;;;;;;2.50;1.00;;;19.30;66.70;;;;;;5016544;28;20062;-81
2022/10/05 09:42:25;;;;;;;1.60;0.85;;;19.40;66.50;;;;;;5015900;28;20030;-82
2022/10/05 09:44:56;;;;;;;1.75;1.10;;;19.50;65.90;;;;;;5016644;28;20076;-81
2022/10/05 09:47:31;;;;;;;4.88;1.10;;;19.50;65.10;;;;;;5016315;28;20026;-81
2022/10/05 09:50:26;;;;;;;2.03;0.88;;;19.50;65.10;;;;;;5016033;28;20483;-80
2022/10/05 09:53:31;;;;;;;2.53;0.75;;;19.60;65.20;;;;;;4989852;28;20060;-81
2022/10/05 09:56:25;;;;;;;2.60;0.80;;;19.70;64.40;;;;;;4998280;28;20408;-80
2022/10/05 09:58:51;;;;;;;1.60;1.00;;;19.60;63.40;;;;;;5010242;28;20114;-80
2022/10/05 10:01:40;;;;;;;2.97;1.10;;;19.60;63.60;;;;;;4995156;28;20072;-80
2022/10/05 10:04:42;;;;;;;1.55;0.85;;;19.60;63.60;;;;;;4996640;28;20034;-81
2022/10/05 10:08:19;;;;;;;5.38;1.08;;;19.80;63.80;;;;;;4996034;28;20097;-81
2022/10/05 10:10:51;;;;;;;1.98;0.80;;;19.80;63.20;;;;;;4917063;29;20028;-80
2022/10/05 10:13:31;;;;;;;2.42;0.80;;;20.00;63.40;;;;;;4917362;29;20051;-81
2022/10/05 10:16:23;;;;;;;2.25;0.80;;;20.10;63.60;;;;;;4957802;28;20037;-80
2022/10/05 10:19:03;;;;;;;2.15;0.80;;;20.10;62.30;;;;;;4995607;28;20050;-80
2022/10/05 10:21:53;;;;;;;3.28;0.90;;;20.00;62.50;;;;;;4996288;28;20508;-81
2022/10/05 10:24:35;;;;;;;6.28;0.95;;;20.20;62.60;;;;;;4996966;28;20065;-79
2022/10/05 10:27:15;;;;;;;2.65;0.80;;;20.20;63.00;;;;;;4996322;28;20113;-80
2022/10/05 10:29:59;;;;;;;;;;;20.30;62.10;;;;;;4996602;28;20095;-80
2022/10/05 10:32:47;;;;;;;2.90;0.90;;;20.40;62.20;;;;;;5012820;28;19913;-81
2022/10/05 10:35:37;;;;;;;2.60;2.00;;;20.50;61.10;;;;;;5015827;28;20022;-79
2022/10/05 10:38:22;;;;;;;3.92;0.80;;;20.50;60.50;;;;;;5015735;28;20061;-81
2022/10/05 10:41:19;;;;;;;3.05;1.60;;;20.40;60.70;;;;;;5015000;28;20496;-81
2022/10/05 10:44:12;;;;;;;5.63;1.48;;;20.30;61.10;;;;;;5015865;28;20028;-81
2022/10/05 10:47:23;;;;;;;2.70;0.90;;;20.30;61.50;;;;;;4995309;28;20145;-81
2022/10/05 10:50:11;;;;;;;3.60;0.95;;;20.50;61.70;;;;;;5011161;28;20042;-80
2022/10/05 10:52:55;;;;;;;3.40;0.98;;;20.60;60.80;;;;;;5015730;28;20507;-80
2022/10/05 10:55:36;;;;;;;2.40;0.80;;;20.70;60.60;;;;;;5008631;28;20027;-80
2022/10/05 10:58:36;;;;;;;2.83;1.00;;;20.70;60.60;;;;;;4995880;28;20033;-81
2022/10/05 11:01:26;;;;;;;2.90;0.82;;;20.60;60.80;;;;;;4996055;28;20445;-81
2022/10/05 11:04:00;;;;;;;1.83;0.70;;;20.60;61.00;;;;;;4996054;28;20022;-81
2022/10/05 11:07:03;;;;;;;2.92;1.00;;;20.70;61.20;;;;;;5003063;28;20049;-80
2022/10/05 11:09:38;;;;;;;0.90;0.60;;;20.70;61.70;;;;;;5014580;28;20030;-81
2022/10/05 11:12:16;;;;;;;3.17;0.98;;;20.80;61.70;;;;;;5008878;28;20041;-82
2022/10/05 11:14:47;;;;;;;4.03;0.82;;;20.80;61.60;;;;;;5006912;28;20029;-81
2022/10/05 11:17:32;;;;;;;4.38;1.00;;;20.80;62.10;;;;;;5015271;28;20114;-81
2022/10/05 11:20:32;;;;;;;1.30;0.70;;;20.80;62.70;;;;;;5015380;28;20099;-81
2022/10/05 11:23:13;;;;;;;3.85;0.95;;;20.90;62.70;;;;;;5014783;28;20080;-82
2022/10/05 11:25:57;;;;;;;2.90;0.75;;;20.90;62.30;;;;;;5015512;28;20459;-81
2022/10/05 11:28:42;;;;;;;4.40;1.00;;;20.90;61.90;;;;;;5015438;28;20038;-81
2022/10/05 11:31:26;;;;;;;4.03;0.90;;;20.80;62.50;;;;;;5016452;28;20022;-81
2022/10/05 11:34:31;;;;;;;4.15;1.00;;;20.80;62.10;;;;;;4999423;28;20040;-81
2022/10/05 11:37:09;;;;;;;3.22;0.80;;;20.80;62.00;;;;;;4981702;28;20412;-82
2022/10/05 11:39:41;;;;;;;3.88;1.02;;;20.90;61.80;;;;;;4999310;28;20034;-82
2022/10/05 11:42:31;;;;;;;5.13;1.42;;;20.80;62.20;;;;;;5014237;28;20053;-82
2022/10/05 11:45:10;;;;;;;;;;;20.80;62.10;;;;;;5019122;28;20109;-80
2022/10/05 11:47:55;;;;;;;2.58;0.70;;;20.80;62.40;;;;;;5011673;28;20293;-81
2022/10/05 11:50:48;;;;;;;1.77;1.10;;;20.80;62.40;;;;;;4999069;28;20037;-82
2022/10/05 11:53:28;;;;;;;3.30;1.25;;;21.00;62.60;;;;;;4997647;28;20026;-81
2022/10/05 11:56:12;;;;;;;3.97;0.85;;;21.00;62.30;;;;;;4999028;28;20030;-80
2022/10/05 11:58:53;;;;;;;7.25;1.27;;;21.00;62.10;;;;;;4997729;28;20038;-82
2022/10/05 12:01:22;;;;;;;4.82;1.60;;;21.00;62.10;;;;;;4997362;28;20034;-81
2022/10/05 12:04:05;;;;;;;2.13;1.20;;;21.00;61.70;;;;;;4998742;28;20509;-83
2022/10/05 12:07:03;;;;;;;3.75;1.25;;;21.00;62.70;;;;;;4998774;28;20026;-81
2022/10/05 12:12:43;;;;;;;1.90;1.00;;;21.10;62.40;;;;;;5007713;28;20101;-81
2022/10/05 12:15:35;;;;;;;2.92;0.80;;;21.00;62.60;;;;;;4998537;28;20022;-81
2022/10/05 12:18:12;;;;;;;6.50;1.88;;;21.00;62.80;;;;;;5012617;28;20108;-89
2022/10/05 12:20:44;;;;;;;3.70;0.93;;;21.00;63.10;;;;;;4996587;28;20501;-81
2022/10/05 12:23:22;;;;;;;4.55;1.00;;;21.10;63.20;;;;;;5011349;28;20037;-83
2022/10/05 12:25:56;;;;;;;2.67;0.93;;;21.10;63.00;;;;;;5006451;28;20472;-83
2022/10/05 12:28:43;;;;;;;2.80;1.02;;;21.30;63.10;;;;;;5008223;28;20061;-84
2022/10/05 12:31:31;;;;;;;6.80;0.90;;;21.40;63.60;;;;;;5009267;28;20026;-84
2022/10/05 12:34:00;;;;;;;5.97;0.88;;;21.40;63.10;;;;;;5005905;28;20023;-81
2022/10/05 12:36:44;;;;;;;4.10;0.90;;;21.30;63.30;;;;;;4997967;28;20053;-80
2022/10/05 12:39:27;;;;;;;6.15;1.20;;;21.20;63.50;;;;;;5007363;28;20542;-82
2022/10/05 12:41:54;;;;;;;4.55;1.02;;;21.10;63.90;;;;;;5012877;28;20039;-83
2022/10/05 12:44:22;;;;;;;3.75;1.58;;;21.00;64.20;;;;;;5004297;28;20029;-84
2022/10/05 12:47:05;;;;;;;7.50;1.00;;;21.00;64.40;;;;;;5007107;28;20032;-81
2022/10/05 12:49:43;;;;;;;4.38;1.02;;;21.00;64.70;;;;;;4992364;28;20034;-81
2022/10/05 12:52:54;;;;;;;12.23;1.65;;;21.00;64.90;;;;;;5015896;28;20419;-80
2022/10/05 12:55:25;;;;;;;4.95;1.23;;;21.00;65.40;;;;;;5002963;28;20164;-84
2022/10/05 12:57:53;;;;;;;4.38;1.20;;;20.90;65.10;;;;;;5006184;28;20088;-81
2022/10/05 13:00:19;;;;;;;5.85;1.20;;;20.90;65.70;;;;;;5015237;28;20034;-82
2022/10/05 13:02:58;;;;;;;4.90;1.27;;;20.80;65.70;;;;;;5003984;28;20050;-84
2022/10/05 13:06:08;;;;;;;2.65;0.95;;;20.80;66.30;;;;;;4998882;28;20018;-83
2022/10/05 13:08:50;;;;;;;3.28;1.00;;;20.70;67.00;;;;;;5016860;28;20389;-80
2022/10/05 13:11:45;;;;;;;3.05;0.73;;;20.50;67.80;;;;;;5014605;28;20060;-80
2022/10/05 13:14:35;;;;;;;4.90;1.20;;;20.40;68.00;;;;;;4997473;28;20396;-81
2022/10/05 13:17:19;;;;;;;2.97;0.90;;;20.40;68.60;;;;;;5000977;28;20018;-82
2022/10/05 13:19:49;;;;;;;5.85;1.00;;;20.30;68.70;;;;;;4997100;28;20054;-82
2022/10/05 13:22:25;;;;;;;4.75;1.75;;;20.30;68.80;;;;;;5001884;28;20125;-82
2022/10/05 13:25:43;;;;;;;2.67;0.88;;;20.40;68.90;;;;;;5016138;28;20057;-82
2022/10/05 13:28:30;;;;;;;6.18;1.17;;;20.30;69.10;;;;;;4980872;28;20424;-83
2022/10/05 13:31:11;;;;;;;4.22;1.25;;;20.30;69.30;;;;;;5010123;28;20109;-81
2022/10/05 13:33:58;;;;;;;2.90;0.95;;;20.30;69.50;;;;;;5007968;28;20036;-83
2022/10/05 13:36:43;;;;;;;7.50;1.40;;;20.30;69.70;;;;;;5003544;28;20041;-83
2022/10/05 13:39:39;;;;;;;3.67;1.02;;;20.30;69.70;;;;;;5008883;28;20026;-84
2022/10/05 13:42:16;;;;;;;3.40;1.13;;;20.30;70.00;;;;;;5006509;28;20021;-83
2022/10/05 13:44:59;;;;;;;8.15;1.30;;;20.30;70.00;;;;;;5007792;28;20030;-83
2022/10/05 13:48:01;;;;;;;3.40;0.90;;;20.30;70.40;;;;;;5013600;28;20037;-82
2022/10/05 13:50:33;;;;;;;5.65;1.35;;;20.30;70.60;;;;;;4974555;28;20027;-83
2022/10/05 13:53:10;;;;;;;2.70;0.80;;;20.30;70.80;;;;;;5008752;28;20033;-82
2022/10/05 13:55:46;;;;;;;1.88;0.73;;;20.20;71.60;;;;;;5014751;28;20388;-83
2022/10/05 13:58:25;;;;;;;2.17;0.90;;;20.10;72.50;;;;;;4999494;28;20488;-82
2022/10/05 14:00:56;;;;;;;2.42;0.90;;;20.10;72.70;;;;;;5020469;28;20030;-83
2022/10/05 14:03:31;;;;;;;3.30;0.70;;;20.10;73.00;;;;;;5010511;28;20026;-83
2022/10/05 14:06:00;;;;;;;1.63;0.63;;;20.00;73.30;;;;;;5009228;28;20036;-83
2022/10/05 14:08:34;;;;;;;2.35;1.25;;;19.90;73.60;;;;;;5005444;28;20054;-84
2022/10/05 14:11:22;;;;;;;4.85;0.73;;;20.00;73.50;;;;;;4988321;28;20029;-85
2022/10/05 14:13:49;;;;;;;6.18;1.40;;;20.00;73.40;;;;;;4988111;28;20034;-82
2022/10/05 14:16:21;;;;;;;5.10;1.05;;;20.00;73.70;;;;;;5004429;28;20030;-85
2022/10/05 14:18:56;;;;;;;2.95;1.17;;;20.10;73.80;;;;;;4987802;28;20132;-83